Time;durP1;ratioP1;P1;durP2;ratioP2;P2;SDS_P1;SDS_P2;PMS_P1;PMS_P2;Temp;Humidity;BMP_temperature;BMP_pressure;BME280_temperature;BME280_humidity;BME280_pressure;Samples;Min_cycle;Max_cycle;Signal;HPM_P1;HPM_P2
2022/03/01 00:00:47;;;;;;;28.77;15.13;;;2.20;82.70;;;;;;5040867;28;20583;-45
2022/03/01 00:03:15;;;;;;;18.33;14.20;;;2.20;82.40;;;;;;5046015;28;20483;-45
2022/03/01 00:05:42;;;;;;;32.47;15.07;;;2.30;82.40;;;;;;5045493;28;20489;-45
2022/03/01 00:08:08;;;;;;;23.93;14.77;;;2.30;82.40;;;;;;5043205;28;20490;-45
2022/03/01 00:10:35;;;;;;;20.97;14.20;;;2.20;82.10;;;;;;5042478;28;20494;-45
2022/03/01 00:13:02;;;;;;;28.60;15.53;;;2.10;82.20;;;;;;5045655;28;20540;-45
2022/03/01 00:15:28;;;;;;;24.17;15.27;;;2.10;82.60;;;;;;5047141;28;20530;-45
2022/03/01 00:17:55;;;;;;;22.00;14.90;;;2.10;82.80;;;;;;5044431;28;20475;-45
2022/03/01 00:20:23;;;;;;;21.40;13.63;;;1.70;83.00;;;;;;5042406;28;20494;-45
2022/03/01 00:22:50;;;;;;;23.20;13.03;;;1.60;83.90;;;;;;5046955;28;20472;-45
2022/03/01 00:25:16;;;;;;;19.20;12.80;;;1.50;85.10;;;;;;5045446;28;21205;-45
2022/03/01 00:27:43;;;;;;;27.63;15.13;;;1.20;85.50;;;;;;5044792;28;20937;-45
2022/03/01 00:30:11;;;;;;;21.10;13.20;;;1.20;85.70;;;;;;5041951;28;20531;-45
2022/03/01 00:32:38;;;;;;;29.27;16.10;;;1.20;85.90;;;;;;5044518;28;20489;-45
2022/03/01 00:35:06;;;;;;;34.83;13.93;;;1.40;85.20;;;;;;5055896;28;20478;-45
2022/03/01 00:37:34;;;;;;;29.50;14.83;;;1.50;84.70;;;;;;5041820;28;20742;-45
2022/03/01 00:40:01;;;;;;;21.10;13.20;;;1.50;84.20;;;;;;5041615;28;20896;-46
2022/03/01 00:42:27;;;;;;;30.33;13.20;;;1.50;83.50;;;;;;5045307;28;20482;-45
2022/03/01 00:44:54;;;;;;;27.90;14.93;;;1.50;84.10;;;;;;5045708;28;20475;-45
2022/03/01 00:47:21;;;;;;;32.67;14.50;;;1.50;84.90;;;;;;5044121;28;20570;-45
2022/03/01 00:49:48;;;;;;;31.17;14.40;;;1.50;84.30;;;;;;5042930;28;20543;-45
2022/03/01 00:52:15;;;;;;;25.33;15.67;;;1.60;84.20;;;;;;5042804;28;20485;-46
2022/03/01 00:54:43;;;;;;;21.80;12.43;;;1.60;83.90;;;;;;5039928;28;20492;-45
2022/03/01 00:57:09;;;;;;;28.20;14.43;;;1.70;84.20;;;;;;5040909;28;20486;-45
2022/03/01 00:59:36;;;;;;;23.77;13.67;;;1.70;83.90;;;;;;5038296;28;20561;-45
2022/03/01 01:02:03;;;;;;;24.67;15.63;;;1.70;83.90;;;;;;5040473;28;20482;-45
2022/03/01 01:04:30;;;;;;;24.23;13.83;;;1.80;83.50;;;;;;5040648;28;20475;-45
2022/03/01 01:06:57;;;;;;;20.43;13.67;;;1.80;83.20;;;;;;5038977;28;20479;-46
2022/03/01 01:09:24;;;;;;;25.43;14.93;;;1.80;83.70;;;;;;5040433;28;20481;-45
2022/03/01 01:11:52;;;;;;;40.23;14.97;;;1.70;83.60;;;;;;5039042;28;20880;-45
2022/03/01 01:14:19;;;;;;;48.20;20.20;;;1.60;83.60;;;;;;5041145;28;20493;-45
2022/03/01 01:16:45;;;;;;;56.33;27.30;;;1.60;84.20;;;;;;5041243;28;20498;-45
2022/03/01 01:19:12;;;;;;;54.87;27.23;;;1.70;84.30;;;;;;5039621;28;20490;-46
2022/03/01 01:24:23;;;;;;;46.70;16.70;;;1.60;83.60;;;;;;5040837;28;20544;-45
2022/03/01 01:26:51;;;;;;;37.57;20.47;;;1.50;84.00;;;;;;5043925;28;20493;-45
2022/03/01 01:29:18;;;;;;;36.43;18.23;;;1.50;84.20;;;;;;5057990;28;20487;-45
2022/03/01 01:31:45;;;;;;;44.47;16.30;;;1.50;83.70;;;;;;5039638;28;21326;-45
2022/03/01 01:34:11;;;;;;;23.93;15.77;;;1.50;83.40;;;;;;5040684;28;20484;-45
2022/03/01 01:36:38;;;;;;;29.00;16.70;;;1.50;83.30;;;;;;5039696;28;20518;-45
2022/03/01 01:39:05;;;;;;;38.87;17.10;;;1.50;83.40;;;;;;5039104;28;20506;-46
2022/03/01 01:41:32;;;;;;;40.87;20.47;;;1.50;83.50;;;;;;5040887;28;20495;-45
2022/03/01 01:44:05;;;;;;;34.53;19.03;;;1.50;83.40;;;;;;5044995;28;21381;-45
2022/03/01 01:46:32;;;;;;;32.00;16.10;;;1.50;82.90;;;;;;5040053;28;20479;-45
2022/03/01 01:48:58;;;;;;;24.87;15.90;;;1.40;82.70;;;;;;5038765;28;20487;-45
2022/03/01 01:51:25;;;;;;;24.53;14.70;;;1.40;83.00;;;;;;5040804;28;20552;-45
2022/03/01 01:53:52;;;;;;;31.80;15.27;;;1.30;83.20;;;;;;5044695;28;20486;-45
2022/03/01 01:56:19;;;;;;;26.90;15.37;;;1.30;83.30;;;;;;5043845;28;20534;-45
2022/03/01 01:58:46;;;;;;;27.00;17.20;;;1.30;83.10;;;;;;5046537;28;20485;-45
2022/03/01 02:01:14;;;;;;;29.73;15.50;;;1.30;83.30;;;;;;5040299;28;20486;-45
2022/03/01 02:03:42;;;;;;;30.33;16.13;;;1.30;83.80;;;;;;5042301;28;21097;-44
2022/03/01 02:06:09;;;;;;;25.33;13.57;;;1.30;84.10;;;;;;5041026;28;21037;-45
2022/03/01 02:08:35;;;;;;;27.23;15.20;;;1.20;84.20;;;;;;5043436;28;20975;-45
2022/03/01 02:11:02;;;;;;;27.90;14.80;;;1.20;84.10;;;;;;5041500;28;20544;-44
2022/03/01 02:13:29;;;;;;;17.40;13.10;;;1.20;84.30;;;;;;5044219;28;20999;-45
2022/03/01 02:15:57;;;;;;;29.10;13.43;;;1.10;84.10;;;;;;5043655;28;20508;-45
2022/03/01 02:18:26;;;;;;;22.77;13.47;;;1.10;84.10;;;;;;5042399;28;20482;-45
2022/03/01 02:20:54;;;;;;;26.20;13.70;;;1.20;84.10;;;;;;5042171;28;20528;-45
2022/03/01 02:23:20;;;;;;;31.03;15.07;;;1.10;83.60;;;;;;5045048;28;20513;-45
2022/03/01 02:25:47;;;;;;;31.50;15.40;;;1.10;83.90;;;;;;5038709;28;20536;-45
2022/03/01 02:28:14;;;;;;;26.70;15.90;;;1.10;83.90;;;;;;5046528;28;20497;-45
2022/03/01 02:30:41;;;;;;;30.50;16.00;;;0.90;83.70;;;;;;5042010;28;20533;-45
2022/03/01 02:33:07;;;;;;;19.00;12.67;;;0.70;84.30;;;;;;5044390;28;20491;-46
2022/03/01 02:35:34;;;;;;;16.47;12.30;;;0.70;84.80;;;;;;5040913;28;20479;-45
2022/03/01 02:38:03;;;;;;;29.47;12.73;;;0.70;85.10;;;;;;5042393;28;20540;-45
2022/03/01 02:40:30;;;;;;;22.63;13.17;;;0.70;85.20;;;;;;5041580;28;20507;-45
2022/03/01 02:42:58;;;;;;;22.60;14.00;;;0.70;85.30;;;;;;5043419;28;20487;-45
2022/03/01 02:45:24;;;;;;;29.03;14.77;;;0.80;85.10;;;;;;5043063;28;20488;-45
2022/03/01 02:47:51;;;;;;;26.80;12.67;;;0.80;84.90;;;;;;5043196;28;20483;-46
2022/03/01 02:50:19;;;;;;;19.20;12.57;;;0.80;84.40;;;;;;5042225;28;20494;-45
2022/03/01 02:52:46;;;;;;;29.83;13.90;;;0.80;84.50;;;;;;5042457;28;20501;-45
2022/03/01 02:55:14;;;;;;;24.60;13.60;;;0.80;84.40;;;;;;5043028;28;20481;-45
2022/03/01 02:57:44;;;;;;;22.90;13.80;;;;;;;;;;5042519;28;20478;-45
2022/03/01 03:00:12;;;;;;;20.57;12.90;;;0.90;84.20;;;;;;5041517;28;20494;-44
2022/03/01 03:02:39;;;;;;;25.40;11.70;;;0.80;84.00;;;;;;5044313;28;20484;-44
2022/03/01 03:05:07;;;;;;;25.93;14.30;;;0.70;84.80;;;;;;5041520;28;20481;-45
2022/03/01 03:07:34;;;;;;;25.77;15.60;;;0.80;85.10;;;;;;5032413;28;20564;-44
2022/03/01 03:10:01;;;;;;;26.97;14.10;;;0.70;85.10;;;;;;5038305;28;20562;-44
2022/03/01 03:12:29;;;;;;;24.27;13.67;;;0.60;84.70;;;;;;5039759;28;21168;-44
2022/03/01 03:14:55;;;;;;;19.10;12.70;;;0.60;84.50;;;;;;5036215;28;21009;-44
2022/03/01 03:17:22;;;;;;;26.67;14.17;;;0.60;84.30;;;;;;5044444;28;21088;-45
2022/03/01 03:19:49;;;;;;;26.40;13.27;;;0.50;84.50;;;;;;5039198;28;20486;-45
2022/03/01 03:22:16;;;;;;;26.60;13.73;;;0.50;84.70;;;;;;5043378;28;20512;-45
2022/03/01 03:24:43;;;;;;;20.97;12.83;;;0.40;84.40;;;;;;5042279;28;20873;-45
2022/03/01 03:27:09;;;;;;;20.30;13.10;;;0.30;84.20;;;;;;5047961;28;20486;-45
2022/03/01 03:29:37;;;;;;;22.10;11.97;;;0.30;85.00;;;;;;5040115;28;20479;-45
2022/03/01 03:32:04;;;;;;;24.37;14.30;;;0.20;85.20;;;;;;5041827;28;20478;-45
2022/03/01 03:34:31;;;;;;;29.97;15.23;;;0.10;85.70;;;;;;5041460;28;21063;-45
2022/03/01 03:36:58;;;;;;;24.47;13.63;;;0.10;86.10;;;;;;5042519;28;20491;-45
2022/03/01 03:39:25;;;;;;;24.37;14.23;;;0.20;85.70;;;;;;5039790;28;20491;-45
2022/03/01 03:41:52;;;;;;;22.90;11.93;;;0.30;85.00;;;;;;5041897;28;20842;-45
2022/03/01 03:44:19;;;;;;;30.40;14.43;;;0.30;84.80;;;;;;5041274;28;20976;-45
2022/03/01 03:46:47;;;;;;;18.63;12.73;;;0.30;85.30;;;;;;5047098;28;21009;-45
2022/03/01 03:49:14;;;;;;;25.73;14.70;;;0.20;85.70;;;;;;5039892;28;20518;-46
2022/03/01 03:51:40;;;;;;;21.67;13.17;;;0.20;86.20;;;;;;5040549;28;20486;-45
2022/03/01 03:54:07;;;;;;;26.23;12.80;;;0.10;86.80;;;;;;5041739;28;20486;-45
2022/03/01 03:56:34;;;;;;;35.20;16.00;;;0.00;87.40;;;;;;5041814;28;20868;-45
2022/03/01 03:59:01;;;;;;;24.77;13.87;;;0.10;87.20;;;;;;5035238;28;20501;-45
2022/03/01 04:01:27;;;;;;;22.20;13.67;;;0.20;86.60;;;;;;5036372;28;20541;-45
2022/03/01 04:03:58;;;;;;;26.80;14.60;;;0.30;85.80;;;;;;5041924;28;20755;-45
2022/03/01 04:06:25;;;;;;;25.53;13.83;;;0.40;85.00;;;;;;5041119;28;20978;-44
2022/03/01 04:08:51;;;;;;;31.07;13.20;;;0.40;85.00;;;;;;5039669;28;21069;-45
2022/03/01 04:11:18;;;;;;;30.23;14.30;;;0.40;85.00;;;;;;5041417;28;20476;-45
2022/03/01 04:13:45;;;;;;;22.70;12.93;;;0.40;84.80;;;;;;5039649;28;20512;-46
2022/03/01 04:16:12;;;;;;;19.80;12.53;;;0.40;84.70;;;;;;5041758;28;21189;-45
2022/03/01 04:18:38;;;;;;;83.37;27.87;;;0.30;84.80;;;;;;5039582;28;20481;-44
2022/03/01 04:21:07;;;;;;;37.37;20.40;;;0.40;85.50;;;;;;5043455;28;20477;-44
2022/03/01 04:23:34;;;;;;;40.10;20.20;;;0.40;85.90;;;;;;5039748;28;20474;-44
2022/03/01 04:26:01;;;;;;;52.33;18.07;;;0.40;85.00;;;;;;5039272;28;20612;-45
2022/03/01 04:28:27;;;;;;;34.97;19.47;;;0.40;84.40;;;;;;5039145;28;20487;-44
2022/03/01 04:30:54;;;;;;;27.00;14.90;;;0.40;84.20;;;;;;5038988;28;20488;-44
2022/03/01 04:33:21;;;;;;;28.33;14.83;;;0.30;83.90;;;;;;5041228;28;20543;-47
2022/03/01 04:35:48;;;;;;;26.33;14.60;;;0.30;84.40;;;;;;5041636;28;20478;-45
2022/03/01 04:38:17;;;;;;;25.37;13.67;;;0.30;84.20;;;;;;5035699;28;20494;-46
2022/03/01 04:40:44;;;;;;;25.13;14.63;;;0.30;84.30;;;;;;5046805;28;20474;-45
2022/03/01 04:43:10;;;;;;;27.63;15.03;;;0.20;84.60;;;;;;5041589;28;21050;-45
2022/03/01 04:45:37;;;;;;;29.53;15.93;;;0.20;84.60;;;;;;5042358;28;20705;-44
2022/03/01 04:48:05;;;;;;;41.43;19.77;;;0.20;85.10;;;;;;5037930;28;20478;-44
2022/03/01 04:50:32;;;;;;;39.93;19.03;;;0.20;84.90;;;;;;5038567;28;20486;-44
2022/03/01 04:52:59;;;;;;;38.60;19.50;;;0.20;85.00;;;;;;5040239;28;20494;-44
2022/03/01 04:55:27;;;;;;;28.53;13.93;;;0.20;84.50;;;;;;5039982;28;20486;-45
2022/03/01 04:57:53;;;;;;;29.47;14.10;;;0.10;84.30;;;;;;5041657;28;20880;-44
2022/03/01 05:00:21;;;;;;;32.90;15.50;;;0.10;84.20;;;;;;5037730;28;20533;-45
2022/03/01 05:02:48;;;;;;;31.53;13.33;;;0.10;84.20;;;;;;5038562;28;20485;-44
2022/03/01 05:05:16;;;;;;;31.13;15.17;;;0.10;84.70;;;;;;5040362;28;20535;-50
2022/03/01 05:07:44;;;;;;;22.97;13.10;;;0.10;85.00;;;;;;5044883;28;20847;-45
2022/03/01 05:10:13;;;;;;;26.10;11.90;;;0.10;85.00;;;;;;5037192;28;21014;-44
2022/03/01 05:16:02;;;;;;;43.37;17.87;;;-0.10;85.40;;;;;;5019605;28;20494;-44
2022/03/01 05:18:29;;;;;;;25.53;11.43;;;-0.20;84.80;;;;;;5042093;28;20488;-44
2022/03/01 05:20:56;;;;;;;25.60;12.90;;;-0.20;85.60;;;;;;5039143;28;20489;-44
2022/03/01 05:23:23;;;;;;;22.67;13.57;;;-0.30;86.00;;;;;;5040894;28;20984;-44
2022/03/01 05:25:49;;;;;;;20.13;12.07;;;-0.20;86.30;;;;;;5042426;28;20495;-44
2022/03/01 05:28:16;;;;;;;24.60;13.90;;;-0.10;85.80;;;;;;5044769;28;20551;-45
2022/03/01 05:30:43;;;;;;;27.83;13.40;;;-0.10;85.50;;;;;;5041510;28;20472;-45
2022/03/01 05:33:11;;;;;;;23.93;13.17;;;-0.10;85.00;;;;;;5041297;28;20551;-45
2022/03/01 05:35:38;;;;;;;34.63;12.70;;;-0.10;85.00;;;;;;5042302;28;20493;-45
2022/03/01 05:38:09;;;;;;;25.17;13.83;;;-0.10;85.50;;;;;;5040828;28;20480;-45
2022/03/01 05:40:37;;;;;;;22.50;16.10;;;-0.10;86.30;;;;;;5040699;28;20491;-45
2022/03/01 05:43:06;;;;;;;32.83;16.40;;;-0.10;86.30;;;;;;5043420;28;20494;-45
2022/03/01 05:45:34;;;;;;;28.57;15.17;;;0.00;85.70;;;;;;5042837;28;20535;-45
2022/03/01 05:48:01;;;;;;;27.77;14.17;;;0.00;85.40;;;;;;5041340;28;20489;-46
2022/03/01 05:50:29;;;;;;;24.77;13.27;;;0.00;85.20;;;;;;5035551;28;20580;-45
2022/03/01 05:52:56;;;;;;;24.83;14.77;;;0.00;84.70;;;;;;5044759;28;20491;-45
2022/03/01 05:55:22;;;;;;;31.50;14.47;;;-0.10;83.90;;;;;;5044247;28;20930;-45
2022/03/01 05:57:49;;;;;;;27.57;15.07;;;-0.10;84.10;;;;;;5043644;28;20464;-48
2022/03/01 06:00:18;;;;;;;22.43;12.20;;;-0.10;83.90;;;;;;5038938;28;20535;-46
2022/03/01 06:02:47;;;;;;;25.10;14.27;;;-0.20;83.80;;;;;;5043827;28;20978;-44
2022/03/01 06:05:14;;;;;;;23.33;13.30;;;-0.20;83.70;;;;;;5043621;28;20482;-45
2022/03/01 06:07:43;;;;;;;28.60;13.80;;;-0.20;83.70;;;;;;5041700;28;20558;-44
2022/03/01 06:10:10;;;;;;;28.73;13.60;;;-0.30;84.60;;;;;;5040091;28;20477;-44
2022/03/01 06:12:37;;;;;;;25.63;15.43;;;-0.40;85.60;;;;;;5041739;28;20502;-45
2022/03/01 06:15:05;;;;;;;24.70;14.33;;;-0.60;86.50;;;;;;5042986;28;20837;-45
2022/03/01 06:17:32;;;;;;;35.00;16.87;;;-0.50;86.40;;;;;;5039310;28;20482;-45
2022/03/01 06:19:58;;;;;;;24.90;14.03;;;-0.50;86.00;;;;;;5039669;28;20551;-45
2022/03/01 06:22:25;;;;;;;27.10;12.97;;;-0.50;85.40;;;;;;5044244;28;21390;-45
2022/03/01 06:24:55;;;;;;;17.53;8.03;;;-0.80;86.90;;;;;;5039861;28;20480;-45
2022/03/01 06:27:22;;;;;;;16.93;11.77;;;-0.90;88.30;;;;;;5046377;28;21043;-45
2022/03/01 06:29:49;;;;;;;28.53;15.30;;;-0.90;88.60;;;;;;5038903;28;20489;-44
2022/03/01 06:32:16;;;;;;;29.50;14.90;;;-0.70;88.50;;;;;;5042849;28;20487;-45
2022/03/01 06:34:43;;;;;;;28.77;16.67;;;-0.60;88.00;;;;;;5044686;28;20890;-45
2022/03/01 06:37:13;;;;;;;35.73;20.37;;;-0.50;87.50;;;;;;5047451;28;20495;-45
2022/03/01 06:39:41;;;;;;;6.57;4.00;;;-0.50;87.20;;;;;;5040632;28;20566;-44
2022/03/01 06:42:09;;;;;;;22.47;12.60;;;-0.50;87.40;;;;;;5040641;28;20481;-44
2022/03/01 06:44:36;;;;;;;32.07;17.33;;;-0.20;87.50;;;;;;5039302;28;21213;-44
2022/03/01 06:47:03;;;;;;;39.17;20.10;;;-0.20;86.90;;;;;;5041413;28;20493;-45
2022/03/01 06:49:30;;;;;;;38.97;15.10;;;-0.20;86.30;;;;;;5035855;28;20744;-45
2022/03/01 06:51:57;;;;;;;37.07;15.80;;;-0.10;86.30;;;;;;5043287;28;20505;-44
2022/03/01 06:54:23;;;;;;;31.33;16.10;;;-0.20;86.00;;;;;;5030060;28;20470;-46
2022/03/01 06:56:50;;;;;;;22.93;13.53;;;-0.20;86.80;;;;;;5043410;28;21045;-44
2022/03/01 06:59:18;;;;;;;27.13;12.57;;;-0.10;87.40;;;;;;5039570;28;20995;-45
2022/03/01 07:01:45;;;;;;;25.53;13.40;;;-0.10;87.50;;;;;;5042398;28;20486;-44
2022/03/01 07:04:12;;;;;;;22.93;12.60;;;0.00;87.40;;;;;;5041945;28;20558;-44
2022/03/01 07:06:38;;;;;;;29.47;14.10;;;0.20;87.50;;;;;;5041336;28;20846;-45
2022/03/01 07:09:05;;;;;;;31.23;15.57;;;0.30;87.10;;;;;;5040943;28;21152;-45
2022/03/01 07:11:32;;;;;;;25.43;15.27;;;0.40;87.00;;;;;;5040265;28;21271;-45
2022/03/01 07:13:58;;;;;;;17.70;12.30;;;0.50;86.80;;;;;;5041980;28;21273;-45
2022/03/01 07:16:26;;;;;;;28.00;15.27;;;0.60;86.80;;;;;;5043990;28;21801;-45
2022/03/01 07:18:54;;;;;;;22.47;13.57;;;0.90;88.00;;;;;;5042071;28;21002;-45
2022/03/01 07:21:21;;;;;;;28.40;15.27;;;2.10;90.40;;;;;;5029283;28;20569;-45
2022/03/01 07:23:48;;;;;;;34.83;16.90;;;3.70;90.40;;;;;;5043854;28;20513;-45
2022/03/01 07:26:15;;;;;;;29.30;15.20;;;4.90;87.50;;;;;;5042604;28;20538;-45
2022/03/01 07:28:41;;;;;;;27.20;15.50;;;6.40;82.10;;;;;;5041592;28;20491;-45
2022/03/01 07:31:08;;;;;;;20.20;12.97;;;7.50;80.10;;;;;;5038391;28;20919;-45
2022/03/01 07:33:38;;;;;;;25.63;13.80;;;8.50;77.70;;;;;;5038310;28;20488;-45
2022/03/01 07:36:05;;;;;;;23.93;14.10;;;10.20;76.10;;;;;;5040139;28;20968;-45
2022/03/01 07:38:32;;;;;;;24.20;14.40;;;10.70;73.50;;;;;;5039671;28;20516;-45
2022/03/01 07:40:59;;;;;;;23.13;15.83;;;11.40;73.30;;;;;;5024348;28;20487;-46
2022/03/01 07:43:25;;;;;;;22.47;15.77;;;13.50;68.70;;;;;;5054143;28;20507;-46
2022/03/01 07:45:52;;;;;;;26.27;17.90;;;13.80;68.40;;;;;;5057391;28;20489;-46
2022/03/01 07:48:18;;;;;;;23.20;15.67;;;14.30;67.80;;;;;;5037596;28;21047;-46
2022/03/01 07:50:46;;;;;;;29.83;17.30;;;15.60;63.40;;;;;;5036922;28;20568;-46
2022/03/01 07:53:13;;;;;;;24.03;18.13;;;15.60;63.60;;;;;;5039802;28;20554;-46
2022/03/01 07:55:40;;;;;;;21.63;15.17;;;16.10;63.10;;;;;;5037162;28;20549;-46
2022/03/01 07:58:06;;;;;;;22.23;14.60;;;16.70;59.00;;;;;;5042177;28;20877;-46
2022/03/01 08:00:33;;;;;;;20.13;13.90;;;16.80;59.80;;;;;;5036578;28;20551;-46
2022/03/01 08:03:00;;;;;;;20.60;14.60;;;17.00;59.20;;;;;;5036195;28;20559;-46
2022/03/01 08:05:27;;;;;;;23.50;14.87;;;17.50;57.80;;;;;;5039395;28;20825;-45
2022/03/01 08:07:57;;;;;;;19.20;14.00;;;17.50;58.20;;;;;;5042179;28;20880;-46
2022/03/01 08:10:23;;;;;;;17.00;13.80;;;17.60;57.90;;;;;;5032136;28;20572;-46
2022/03/01 08:12:50;;;;;;;25.40;13.90;;;18.20;57.30;;;;;;5049657;28;20544;-46
2022/03/01 08:15:17;;;;;;;19.53;14.03;;;18.40;55.70;;;;;;5040424;28;20482;-46
2022/03/01 08:17:48;;;;;;;15.33;11.90;;;18.60;55.60;;;;;;5037848;28;20487;-45
2022/03/01 08:20:15;;;;;;;18.00;12.57;;;18.60;55.30;;;;;;5023427;28;20501;-46
2022/03/01 08:22:41;;;;;;;15.83;11.77;;;18.10;54.60;;;;;;5028399;28;20487;-46
2022/03/01 08:25:10;;;;;;;18.80;12.17;;;17.90;55.20;;;;;;5029159;28;20537;-46
2022/03/01 08:27:37;;;;;;;21.00;12.77;;;17.30;54.60;;;;;;5043020;28;20507;-46
2022/03/01 08:30:05;;;;;;;17.90;12.53;;;17.00;54.70;;;;;;5038073;28;21297;-46
2022/03/01 08:32:31;;;;;;;21.67;11.70;;;16.50;54.30;;;;;;5045473;28;20488;-46
2022/03/01 08:34:58;;;;;;;18.93;13.13;;;16.00;55.60;;;;;;5034476;28;20495;-46
2022/03/01 08:37:26;;;;;;;17.93;12.63;;;15.70;56.80;;;;;;5044775;28;20537;-45
2022/03/01 08:39:53;;;;;;;18.60;11.23;;;14.90;54.10;;;;;;5037470;28;20488;-46
2022/03/01 08:42:21;;;;;;;20.63;12.80;;;14.30;56.50;;;;;;5041572;28;20490;-46
2022/03/01 08:44:48;;;;;;;20.03;12.70;;;13.80;56.30;;;;;;5043611;28;20490;-45
2022/03/01 08:47:14;;;;;;;19.20;12.90;;;13.40;57.10;;;;;;5039165;28;20480;-46
2022/03/01 08:49:41;;;;;;;17.60;11.70;;;12.80;57.40;;;;;;5034300;28;20948;-45
2022/03/01 08:52:08;;;;;;;16.97;10.90;;;12.60;57.70;;;;;;5043630;28;20954;-45
2022/03/01 08:54:34;;;;;;;18.73;11.70;;;12.30;57.70;;;;;;5044175;28;20484;-46
2022/03/01 08:57:01;;;;;;;21.80;12.70;;;12.00;59.40;;;;;;5043255;28;20534;-49
2022/03/01 08:59:29;;;;;;;23.03;12.40;;;11.70;60.30;;;;;;5036407;28;20483;-46
2022/03/01 09:01:56;;;;;;;20.80;11.80;;;11.60;60.80;;;;;;5046800;28;20490;-45
2022/03/01 09:04:22;;;;;;;18.60;12.23;;;11.60;60.70;;;;;;5050243;28;20476;-45
2022/03/01 09:06:49;;;;;;;19.90;12.07;;;11.40;60.30;;;;;;5063353;28;20550;-45
2022/03/01 09:09:16;;;;;;;16.10;11.90;;;11.40;60.40;;;;;;5039253;28;20936;-46
2022/03/01 09:11:42;;;;;;;17.97;12.57;;;11.40;61.90;;;;;;5042813;28;20502;-45
2022/03/01 09:14:09;;;;;;;19.20;12.57;;;11.40;62.30;;;;;;5045362;28;20482;-45
2022/03/01 09:16:38;;;;;;;19.60;12.23;;;11.60;61.50;;;;;;5044299;28;20912;-50
2022/03/01 09:19:05;;;;;;;18.73;11.60;;;11.50;60.40;;;;;;5038258;28;20515;-45
2022/03/01 09:21:31;;;;;;;21.40;13.30;;;11.40;61.10;;;;;;5045011;28;21018;-45
2022/03/01 09:23:58;;;;;;;23.80;12.27;;;11.30;60.90;;;;;;5035268;28;20509;-45
2022/03/01 09:26:25;;;;;;;21.70;12.53;;;11.20;61.10;;;;;;5048575;28;20477;-45
2022/03/01 09:28:51;;;;;;;19.70;12.47;;;11.10;61.50;;;;;;5044346;28;20823;-46
2022/03/01 09:31:18;;;;;;;18.60;12.80;;;11.00;61.60;;;;;;5066303;28;20476;-45
2022/03/01 09:33:46;;;;;;;24.93;12.40;;;11.00;62.40;;;;;;5047496;28;20907;-45
2022/03/01 09:36:14;;;;;;;16.13;10.77;;;11.00;63.00;;;;;;5046144;28;20478;-45
2022/03/01 09:38:41;;;;;;;22.60;11.90;;;11.20;63.10;;;;;;5045240;28;20485;-45
2022/03/01 09:41:08;;;;;;;17.83;11.20;;;11.40;62.70;;;;;;5046041;28;20484;-46
2022/03/01 09:43:37;;;;;;;24.70;12.27;;;11.70;61.50;;;;;;5048521;28;20496;-45
2022/03/01 09:46:03;;;;;;;19.10;11.33;;;11.80;60.10;;;;;;5049719;28;20956;-44
2022/03/01 09:48:30;;;;;;;24.60;13.53;;;12.00;60.30;;;;;;5046628;28;20559;-45
2022/03/01 09:51:00;;;;;;;18.37;11.70;;;12.00;59.60;;;;;;5038672;28;20512;-45
2022/03/01 09:53:27;;;;;;;22.00;13.13;;;11.90;59.10;;;;;;5043450;28;20969;-45
2022/03/01 09:55:55;;;;;;;18.53;11.20;;;11.80;57.90;;;;;;5045197;28;20482;-44
2022/03/01 09:58:22;;;;;;;19.27;11.03;;;11.70;57.80;;;;;;5043507;28;20480;-45
2022/03/01 10:00:48;;;;;;;17.13;11.43;;;11.60;57.70;;;;;;5038706;28;20994;-45
2022/03/01 10:03:17;;;;;;;16.13;10.70;;;11.60;57.60;;;;;;5034665;28;20522;-45
2022/03/01 10:05:44;;;;;;;13.93;9.43;;;11.60;57.80;;;;;;5069861;28;20476;-45
2022/03/01 10:08:13;;;;;;;20.43;10.47;;;11.40;56.50;;;;;;5043282;28;20494;-44
2022/03/01 10:10:42;;;;;;;29.60;12.33;;;11.50;57.50;;;;;;5037140;28;20477;-44
2022/03/01 10:13:09;;;;;;;18.00;12.10;;;11.50;58.30;;;;;;5045265;28;20480;-45
2022/03/01 10:15:36;;;;;;;17.27;11.70;;;11.30;56.70;;;;;;5045413;28;20490;-46
2022/03/01 10:18:11;;;;;;;16.33;11.30;;;11.30;57.30;;;;;;5047068;28;20495;-45
2022/03/01 10:20:41;;;;;;;15.27;10.97;;;11.30;57.40;;;;;;5034065;28;20851;-45
2022/03/01 10:23:10;;;;;;;19.77;11.97;;;11.30;57.60;;;;;;5043161;28;20520;-45
2022/03/01 10:25:39;;;;;;;23.23;12.20;;;11.40;58.40;;;;;;5044596;28;20508;-51
2022/03/01 10:28:07;;;;;;;18.83;11.03;;;11.40;56.50;;;;;;5040788;28;21303;-45
2022/03/01 10:30:35;;;;;;;20.30;11.20;;;11.30;57.80;;;;;;5032211;28;20528;-45
2022/03/01 10:33:07;;;;;;;16.57;10.33;;;11.20;56.70;;;;;;5046813;28;20904;-46
2022/03/01 10:35:34;;;;;;;18.30;10.47;;;11.00;56.40;;;;;;5046857;28;20477;-45
2022/03/01 10:38:02;;;;;;;18.70;11.60;;;10.80;55.30;;;;;;5043841;28;20982;-44
2022/03/01 10:40:29;;;;;;;20.77;9.83;;;10.70;55.70;;;;;;5022226;28;20483;-44
2022/03/01 10:43:02;;;;;;;17.07;11.20;;;10.60;56.60;;;;;;5045607;28;20489;-45
2022/03/01 10:45:39;;;;;;;18.30;13.07;;;10.40;54.70;;;;;;5047594;28;20480;-45
2022/03/01 10:48:07;;;;;;;14.27;8.17;;;10.50;57.00;;;;;;5047654;28;20557;-45
2022/03/01 10:50:34;;;;;;;18.37;11.40;;;10.40;54.60;;;;;;5035829;28;20486;-45
2022/03/01 10:53:01;;;;;;;22.60;10.40;;;10.50;56.30;;;;;;5047584;28;20539;-44
2022/03/01 10:55:29;;;;;;;18.70;9.27;;;;;;;;;;5048424;28;21014;-45
2022/03/01 10:58:08;;;;;;;16.13;9.90;;;10.70;55.40;;;;;;5044082;28;20514;-44
2022/03/01 11:00:36;;;;;;;14.67;10.10;;;10.70;54.60;;;;;;5025498;28;20971;-45
2022/03/01 11:03:04;;;;;;;15.87;9.50;;;10.40;51.80;;;;;;5045920;28;20924;-45
2022/03/01 11:05:32;;;;;;;14.27;10.00;;;10.30;53.90;;;;;;5045765;28;20521;-45
2022/03/01 11:08:02;;;;;;;12.93;8.50;;;10.40;55.00;;;;;;5046578;28;21052;-45
2022/03/01 11:10:31;;;;;;;94.50;13.87;;;10.50;54.10;;;;;;5037620;28;20488;-45
2022/03/01 11:12:59;;;;;;;13.37;9.93;;;10.60;56.20;;;;;;5045878;28;20536;-45
2022/03/01 11:15:50;;;;;;;13.50;8.57;;;10.40;53.20;;;;;;5033472;28;20659;-45
2022/03/01 11:18:27;;;;;;;16.10;9.37;;;10.30;53.20;;;;;;5027582;28;20482;-45
2022/03/01 11:20:56;;;;;;;15.60;8.70;;;10.30;52.90;;;;;;5037533;28;21176;-45
2022/03/01 11:23:26;;;;;;;10.47;7.03;;;10.20;52.00;;;;;;5034832;28;21060;-45
2022/03/01 11:25:53;;;;;;;15.00;9.50;;;10.20;53.90;;;;;;5042947;28;20513;-46
2022/03/01 11:28:29;;;;;;;13.10;8.20;;;10.40;54.90;;;;;;5044542;28;20548;-45
2022/03/01 11:30:58;;;;;;;12.43;8.10;;;10.40;52.90;;;;;;5053624;28;20476;-52
2022/03/01 11:33:26;;;;;;;32.83;9.00;;;10.50;53.50;;;;;;5044713;28;20483;-45
2022/03/01 11:35:55;;;;;;;14.03;8.70;;;10.50;52.50;;;;;;5044684;28;20502;-45
2022/03/01 11:38:26;;;;;;;12.37;8.00;;;10.50;53.00;;;;;;5044235;28;20484;-44
2022/03/01 11:40:55;;;;;;;16.37;10.03;;;10.50;52.40;;;;;;5037796;28;20847;-46
2022/03/01 11:43:26;;;;;;;11.83;8.10;;;10.60;51.90;;;;;;5042671;28;20518;-45
2022/03/01 11:45:54;;;;;;;19.43;9.00;;;10.60;52.10;;;;;;5042974;28;20779;-45
2022/03/01 11:48:25;;;;;;;15.17;8.60;;;10.60;53.70;;;;;;5044099;28;20481;-45
2022/03/01 11:50:56;;;;;;;15.03;7.63;;;10.70;52.70;;;;;;5036858;28;20894;-44
2022/03/01 11:53:25;;;;;;;10.37;8.00;;;10.80;52.50;;;;;;5044147;28;20485;-45
2022/03/01 11:55:55;;;;;;;12.17;6.20;;;11.00;52.30;;;;;;5043785;28;21296;-45
2022/03/01 11:58:23;;;;;;;17.63;9.47;;;11.00;52.20;;;;;;5027375;28;20496;-45
2022/03/01 12:00:51;;;;;;;13.37;7.73;;;11.00;50.40;;;;;;5039826;28;20713;-45
2022/03/01 12:03:23;;;;;;;11.00;6.33;;;11.00;49.10;;;;;;5045284;28;20489;-46
2022/03/01 12:05:51;;;;;;;11.20;6.07;;;11.20;51.20;;;;;;5041765;28;20971;-45
2022/03/01 12:08:19;;;;;;;13.80;6.20;;;;;;;;;;5042923;28;20724;-45
2022/03/01 12:10:53;;;;;;;9.67;6.87;;;10.90;47.60;;;;;;5033781;28;20619;-46
2022/03/01 12:13:20;;;;;;;8.70;4.20;;;10.70;48.10;;;;;;5064772;28;20475;-45
2022/03/01 12:15:56;;;;;;;12.87;7.73;;;11.00;50.40;;;;;;5041525;28;20504;-45
2022/03/01 12:18:28;;;;;;;7.67;5.60;;;10.90;47.50;;;;;;5043792;28;20487;-45
2022/03/01 12:21:01;;;;;;;11.30;6.60;;;11.00;48.00;;;;;;5035815;28;20905;-45
2022/03/01 12:23:31;;;;;;;12.00;7.90;;;11.10;48.50;;;;;;5043338;28;20481;-45
2022/03/01 12:26:00;;;;;;;14.17;6.10;;;11.00;48.80;;;;;;5044803;28;20549;-46
2022/03/01 12:28:30;;;;;;;15.40;7.20;;;11.30;50.20;;;;;;5042591;28;20911;-45
2022/03/01 12:30:59;;;;;;;12.97;7.77;;;11.30;49.30;;;;;;5038654;28;20551;-46
2022/03/01 12:33:27;;;;;;;19.23;7.83;;;11.20;47.80;;;;;;5043466;28;20595;-45
2022/03/01 12:36:03;;;;;;;11.90;6.87;;;11.70;51.40;;;;;;5041828;28;21553;-45
2022/03/01 12:38:31;;;;;;;10.67;6.10;;;11.70;50.70;;;;;;5042456;28;20493;-45
2022/03/01 12:41:08;;;;;;;10.27;6.07;;;12.00;52.50;;;;;;5038340;28;20501;-45